createdAt,value
2022-10-19T00:00:51.015Z,27
2022-10-19T00:30:15.611Z,26
2022-10-19T00:59:38.666Z,24
2022-10-19T01:29:04.261Z,25
2022-10-19T01:58:15.813Z,28
2022-10-19T02:27:40.063Z,28
2022-10-19T02:56:54.475Z,28
2022-10-19T03:26:08.704Z,29
2022-10-19T03:54:57.217Z,29
2022-10-19T04:24:13.953Z,28
2022-10-19T04:54:30.409Z,33
2022-10-19T05:23:25.646Z,43
2022-10-19T05:52:39.741Z,32
2022-10-19T06:21:58.858Z,35
2022-10-19T06:51:20.438Z,34
2022-10-19T07:20:33.672Z,33
2022-10-19T07:49:44.902Z,36
2022-10-19T08:19:01.785Z,36
2022-10-19T08:48:26.428Z,37
2022-10-19T09:17:49.398Z,37
2022-10-19T09:47:14.060Z,37
2022-10-19T10:16:27.315Z,35
2022-10-19T10:45:40.321Z,39
2022-10-19T11:15:06.728Z,40
2022-10-19T11:44:33.511Z,46
2022-10-19T12:14:07.835Z,37
2022-10-19T12:43:30.321Z,35
2022-10-19T13:12:55.743Z,34
2022-10-19T13:42:12.313Z,28
2022-10-19T14:11:31.676Z,28
2022-10-19T14:40:59.772Z,22
2022-10-19T15:10:20.733Z,14
2022-10-19T15:39:45.585Z,22
2022-10-19T16:08:39.246Z,20
2022-10-19T16:37:59.607Z,20
2022-10-19T17:07:23.955Z,20
2022-10-19T17:37:44.310Z,24
2022-10-19T18:06:21.642Z,28
2022-10-19T18:35:40.235Z,24
2022-10-19T19:05:02.619Z,25
2022-10-19T19:34:20.906Z,28
2022-10-19T20:03:37.526Z,28
2022-10-19T20:32:46.883Z,29
2022-10-19T21:02:04.443Z,33
2022-10-19T21:31:13.835Z,38
2022-10-19T22:00:34.633Z,33
2022-10-19T22:29:52.847Z,33
2022-10-19T22:59:09.688Z,41
2022-10-19T23:28:23.431Z,37
2022-10-19T23:57:36.539Z,44
